Time;durP1;ratioP1;P1;durP2;ratioP2;P2;SDS_P1;SDS_P2;PMS_P1;PMS_P2;Temp;Humidity;BMP_temperature;BMP_pressure;BME280_temperature;BME280_humidity;BME280_pressure;Samples;Min_cycle;Max_cycle;Signal;HPM_P1;HPM_P2
2023/08/01 00:02:20;;;;;;;1.30;1.10;;;17.30;99.90;;;;;;4989008;28;20196;-78
2023/08/01 00:04:47;;;;;;;1.48;1.30;;;17.30;99.90;;;;;;4990814;28;20220;-78
2023/08/01 00:07:15;;;;;;;1.50;1.02;;;17.20;99.90;;;;;;4995987;28;20239;-78
2023/08/01 00:09:42;;;;;;;1.50;1.10;;;17.30;99.90;;;;;;4992395;28;20684;-78
2023/08/01 00:12:10;;;;;;;0.93;0.82;;;17.20;99.90;;;;;;4981668;28;20211;-79
2023/08/01 00:14:37;;;;;;;0.90;0.70;;;17.10;99.90;;;;;;4999283;28;20224;-78
2023/08/01 00:17:06;;;;;;;0.98;0.93;;;17.10;99.90;;;;;;4996971;28;20196;-78
2023/08/01 00:19:34;;;;;;;1.10;0.90;;;17.10;99.90;;;;;;4998099;28;20203;-78
2023/08/01 00:22:01;;;;;;;0.70;0.63;;;17.10;99.90;;;;;;5000515;28;20196;-78
2023/08/01 00:24:28;;;;;;;0.93;0.52;;;17.10;99.90;;;;;;4983929;28;20224;-78
2023/08/01 00:26:56;;;;;;;0.77;0.65;;;17.10;99.90;;;;;;4978586;28;20204;-79
2023/08/01 00:29:23;;;;;;;1.55;0.80;;;17.10;99.90;;;;;;4984009;28;20550;-79
2023/08/01 00:31:51;;;;;;;0.50;0.50;;;17.00;99.90;;;;;;4981204;28;20227;-78
2023/08/01 00:34:20;;;;;;;0.90;0.70;;;17.00;99.90;;;;;;4985634;28;20216;-79
2023/08/01 00:36:48;;;;;;;1.35;0.85;;;17.00;99.90;;;;;;4993814;28;20216;-78
2023/08/01 00:39:16;;;;;;;1.38;1.27;;;17.00;99.90;;;;;;4993536;28;20208;-78
2023/08/01 00:41:44;;;;;;;2.17;1.70;;;17.00;99.90;;;;;;4973783;28;20215;-78
2023/08/01 00:44:12;;;;;;;2.15;1.85;;;17.00;99.90;;;;;;4983143;28;20216;-78
2023/08/01 00:46:39;;;;;;;2.63;2.00;;;16.90;99.90;;;;;;5007857;28;20207;-79
2023/08/01 00:49:08;;;;;;;2.75;2.40;;;16.90;99.90;;;;;;5006243;28;20216;-79
2023/08/01 00:51:37;;;;;;;2.78;2.05;;;16.80;99.90;;;;;;4983820;28;20207;-78
2023/08/01 00:54:05;;;;;;;2.20;2.00;;;16.80;99.90;;;;;;4997509;28;20224;-79
2023/08/01 00:56:32;;;;;;;2.42;2.17;;;16.80;99.90;;;;;;4990230;28;20593;-79
2023/08/01 00:59:00;;;;;;;1.83;1.70;;;16.80;99.90;;;;;;5000772;28;20192;-78
2023/08/01 01:01:28;;;;;;;1.83;1.42;;;16.80;99.90;;;;;;4996547;28;20701;-79
2023/08/01 01:03:55;;;;;;;2.65;1.92;;;16.80;99.90;;;;;;4996240;28;20590;-79
2023/08/01 01:06:29;;;;;;;2.17;1.58;;;16.80;99.90;;;;;;4985582;28;20211;-79
2023/08/01 01:08:57;;;;;;;3.72;2.17;;;16.80;99.90;;;;;;4976500;28;20216;-79
2023/08/01 01:11:25;;;;;;;2.83;2.13;;;16.80;99.90;;;;;;4978210;28;20199;-79
2023/08/01 01:13:52;;;;;;;1.92;1.73;;;16.90;99.90;;;;;;5001817;28;20232;-78
2023/08/01 01:16:20;;;;;;;2.17;1.98;;;16.90;99.90;;;;;;4980723;28;20650;-78
2023/08/01 01:18:47;;;;;;;2.75;2.00;;;16.90;99.90;;;;;;5002403;28;20200;-79
2023/08/01 01:21:16;;;;;;;3.05;1.90;;;16.90;99.90;;;;;;4979705;28;20202;-79
2023/08/01 01:23:45;;;;;;;4.68;2.22;;;16.90;99.90;;;;;;4979156;28;20207;-78
2023/08/01 01:26:13;;;;;;;3.17;2.88;;;17.00;99.90;;;;;;4995206;28;20200;-79
2023/08/01 01:28:42;;;;;;;4.53;3.42;;;17.00;99.90;;;;;;4998808;28;20220;-79
2023/08/01 01:31:09;;;;;;;4.65;4.25;;;16.90;99.90;;;;;;4993255;28;20211;-79
2023/08/01 01:33:37;;;;;;;5.78;4.00;;;17.00;99.90;;;;;;5000086;28;20197;-79
2023/08/01 01:36:05;;;;;;;5.55;5.05;;;17.00;99.90;;;;;;4975410;28;20228;-79
2023/08/01 01:38:33;;;;;;;5.85;5.25;;;16.90;99.90;;;;;;4999166;28;20209;-78
2023/08/01 01:41:01;;;;;;;5.93;5.18;;;16.90;99.90;;;;;;5000704;28;20572;-79
2023/08/01 01:43:28;;;;;;;6.72;5.60;;;17.00;99.90;;;;;;4983336;28;20208;-79
2023/08/01 01:45:56;;;;;;;6.88;5.38;;;17.00;99.90;;;;;;4990863;28;20224;-79
2023/08/01 01:48:23;;;;;;;5.25;3.53;;;17.00;99.90;;;;;;5000067;28;20223;-79
2023/08/01 01:50:50;;;;;;;3.20;2.90;;;16.90;99.90;;;;;;5002799;28;20674;-79
2023/08/01 01:53:18;;;;;;;4.35;2.65;;;16.90;99.90;;;;;;4994944;28;20196;-79
2023/08/01 01:55:47;;;;;;;2.85;2.65;;;16.90;99.90;;;;;;4990055;28;20224;-79
2023/08/01 01:58:14;;;;;;;3.05;2.72;;;16.80;99.90;;;;;;4980004;28;20199;-79
2023/08/01 02:00:42;;;;;;;3.15;1.98;;;16.90;99.90;;;;;;4990025;28;20207;-79
2023/08/01 02:03:10;;;;;;;2.83;2.05;;;16.90;99.90;;;;;;4981869;28;20199;-79
2023/08/01 02:05:37;;;;;;;3.10;1.95;;;16.80;99.90;;;;;;4983124;28;20220;-79
2023/08/01 02:08:05;;;;;;;2.00;1.90;;;16.70;99.90;;;;;;4977604;28;20216;-79
2023/08/01 02:10:33;;;;;;;3.10;1.90;;;16.70;99.90;;;;;;4978362;28;20208;-79
2023/08/01 02:13:02;;;;;;;2.58;1.90;;;16.60;99.90;;;;;;4989441;28;20197;-78
2023/08/01 02:15:29;;;;;;;1.73;1.63;;;16.50;99.90;;;;;;5000577;28;20216;-78
2023/08/01 02:17:57;;;;;;;3.45;1.67;;;16.40;99.90;;;;;;4995204;28;20199;-78
2023/08/01 02:20:25;;;;;;;2.40;2.15;;;16.40;99.90;;;;;;4968171;28;20209;-79
2023/08/01 02:22:53;;;;;;;3.50;2.50;;;16.30;99.90;;;;;;4977420;28;20284;-79
2023/08/01 02:25:21;;;;;;;3.33;3.03;;;16.30;99.90;;;;;;4977844;28;20222;-79
2023/08/01 02:27:48;;;;;;;3.90;3.20;;;16.30;99.90;;;;;;4991587;28;20547;-79
2023/08/01 02:30:29;;;;;;;4.57;3.70;;;16.30;99.90;;;;;;4997699;28;20654;-79
2023/08/01 02:32:56;;;;;;;5.13;4.55;;;16.30;99.90;;;;;;4980010;28;20211;-78
2023/08/01 02:35:24;;;;;;;5.75;5.13;;;16.30;99.90;;;;;;4990637;28;20224;-78
2023/08/01 02:37:52;;;;;;;6.28;4.47;;;16.30;99.90;;;;;;4991459;28;20209;-78
2023/08/01 02:40:19;;;;;;;6.70;5.93;;;16.30;99.90;;;;;;4996273;28;20266;-78
2023/08/01 02:42:47;;;;;;;7.30;5.93;;;16.20;99.90;;;;;;4998089;28;20215;-78
2023/08/01 02:45:14;;;;;;;7.65;5.95;;;16.30;99.90;;;;;;4987761;28;20232;-78
2023/08/01 02:47:43;;;;;;;8.13;6.45;;;16.30;99.90;;;;;;4994146;28;20200;-78
2023/08/01 02:50:11;;;;;;;7.45;6.07;;;16.30;99.90;;;;;;5001628;28;20212;-78
2023/08/01 02:52:38;;;;;;;10.23;7.13;;;16.30;99.90;;;;;;4984154;28;20593;-78
2023/08/01 02:55:06;;;;;;;7.97;6.60;;;16.20;99.90;;;;;;4985656;28;20219;-78
2023/08/01 02:57:34;;;;;;;11.73;7.53;;;16.20;99.90;;;;;;4998128;28;20265;-78
2023/08/01 03:00:04;;;;;;;9.23;6.88;;;16.20;99.90;;;;;;4988994;28;20197;-78
2023/08/01 03:02:32;;;;;;;11.30;7.53;;;16.20;99.90;;;;;;4995959;28;20196;-79
2023/08/01 03:05:01;;;;;;;10.73;7.72;;;16.20;99.90;;;;;;4980971;28;20312;-78
2023/08/01 03:07:32;;;;;;;13.63;8.85;;;16.30;99.90;;;;;;4998815;28;20209;-79
2023/08/01 03:09:59;;;;;;;11.07;7.88;;;16.30;99.90;;;;;;4977101;28;20220;-78
2023/08/01 03:12:26;;;;;;;10.73;8.65;;;16.30;99.90;;;;;;4986577;28;20685;-79
2023/08/01 03:14:54;;;;;;;10.45;8.13;;;16.30;99.90;;;;;;4981023;28;20228;-79
2023/08/01 03:17:21;;;;;;;11.80;9.00;;;16.40;99.90;;;;;;4997187;28;20207;-79
2023/08/01 03:19:49;;;;;;;11.85;9.05;;;16.40;99.90;;;;;;4997862;28;20201;-78
2023/08/01 03:22:18;;;;;;;12.65;8.93;;;16.40;99.90;;;;;;4999012;28;20208;-78
2023/08/01 03:24:46;;;;;;;11.70;9.30;;;16.50;99.90;;;;;;5005105;28;20222;-78
2023/08/01 03:27:14;;;;;;;12.00;9.43;;;16.40;99.90;;;;;;5005458;28;20467;-78
2023/08/01 03:29:41;;;;;;;15.40;10.75;;;16.50;99.90;;;;;;4982403;28;20205;-79
2023/08/01 03:32:09;;;;;;;11.73;9.48;;;16.50;99.90;;;;;;4987469;28;20204;-78
2023/08/01 03:34:36;;;;;;;15.90;11.55;;;16.50;99.90;;;;;;4985339;28;20230;-78
2023/08/01 03:37:05;;;;;;;15.02;11.43;;;16.40;99.90;;;;;;4987134;28;20211;-78
2023/08/01 03:39:34;;;;;;;14.13;10.88;;;16.50;99.90;;;;;;4991616;28;20200;-78
2023/08/01 03:42:02;;;;;;;15.73;12.32;;;16.50;99.90;;;;;;4983241;28;20207;-78
2023/08/01 03:44:29;;;;;;;15.27;12.88;;;16.50;99.90;;;;;;4982963;28;20220;-78
2023/08/01 03:46:56;;;;;;;16.35;12.52;;;16.50;99.90;;;;;;4988043;28;20211;-78
2023/08/01 03:49:24;;;;;;;16.60;13.75;;;16.50;99.90;;;;;;5010488;28;20220;-79
2023/08/01 03:51:51;;;;;;;17.13;13.75;;;16.60;99.90;;;;;;4988785;28;20204;-78
2023/08/01 03:54:19;;;;;;;15.73;13.48;;;16.50;99.90;;;;;;4981218;28;20224;-79
2023/08/01 03:56:47;;;;;;;17.30;13.20;;;16.60;99.90;;;;;;5001948;28;20207;-79
2023/08/01 03:59:16;;;;;;;16.80;13.45;;;16.60;99.90;;;;;;5005043;28;20646;-79
2023/08/01 04:01:43;;;;;;;16.42;13.82;;;16.60;99.90;;;;;;5000414;28;20708;-79
2023/08/01 04:04:11;;;;;;;15.77;12.57;;;16.60;99.90;;;;;;4992617;28;20230;-78
2023/08/01 04:06:38;;;;;;;16.17;12.45;;;16.60;99.90;;;;;;4986423;28;20205;-78
2023/08/01 04:09:07;;;;;;;16.85;14.32;;;16.60;99.90;;;;;;4984996;28;20220;-78
2023/08/01 04:11:34;;;;;;;19.88;14.25;;;16.50;99.90;;;;;;4995998;28;20197;-78
2023/08/01 04:14:03;;;;;;;16.38;13.43;;;16.50;99.90;;;;;;5003512;28;20216;-78
2023/08/01 04:16:30;;;;;;;19.02;12.90;;;16.40;99.90;;;;;;4996618;28;20197;-79
2023/08/01 04:18:57;;;;;;;18.63;13.82;;;16.40;99.90;;;;;;4975240;28;20211;-78
2023/08/01 04:21:25;;;;;;;20.75;16.45;;;16.40;99.90;;;;;;5002406;28;20199;-78
2023/08/01 04:23:52;;;;;;;19.98;16.25;;;16.40;99.90;;;;;;4986952;28;20212;-78
2023/08/01 04:26:20;;;;;;;23.00;15.98;;;16.40;99.90;;;;;;4987679;28;20196;-78
2023/08/01 04:28:47;;;;;;;18.70;15.73;;;16.30;99.90;;;;;;4995325;28;20214;-78
2023/08/01 04:31:16;;;;;;;25.08;17.25;;;16.30;99.90;;;;;;4986787;28;20201;-79
2023/08/01 04:33:44;;;;;;;22.83;17.05;;;16.30;99.90;;;;;;4981351;28;20211;-78
2023/08/01 04:36:12;;;;;;;18.17;15.80;;;16.30;99.90;;;;;;5010564;28;20192;-78
2023/08/01 04:38:39;;;;;;;22.25;17.40;;;16.30;99.90;;;;;;5004923;28;20835;-78
2023/08/01 04:41:07;;;;;;;19.88;15.85;;;16.20;99.90;;;;;;4996952;28;20203;-78
2023/08/01 04:43:35;;;;;;;20.58;14.77;;;16.20;99.90;;;;;;4975012;28;20212;-78
2023/08/01 04:46:02;;;;;;;15.55;13.30;;;16.10;99.90;;;;;;5005175;28;20199;-78
2023/08/01 04:48:31;;;;;;;17.42;13.55;;;16.10;99.90;;;;;;4982023;28;20220;-79
2023/08/01 04:50:59;;;;;;;16.65;12.55;;;16.10;99.90;;;;;;4989463;28;20224;-78
2023/08/01 04:53:26;;;;;;;15.77;13.05;;;16.10;99.90;;;;;;4977847;28;20219;-78
2023/08/01 04:55:54;;;;;;;22.70;13.43;;;16.00;99.90;;;;;;4980618;28;20679;-78
2023/08/01 04:58:21;;;;;;;22.38;13.25;;;16.00;99.90;;;;;;4990480;28;20215;-78
2023/08/01 05:00:49;;;;;;;15.75;12.73;;;16.00;99.90;;;;;;4971709;28;20671;-78
2023/08/01 05:03:16;;;;;;;19.20;13.73;;;16.00;99.90;;;;;;4979526;28;20208;-78
2023/08/01 05:05:45;;;;;;;17.92;13.75;;;16.00;99.90;;;;;;4992682;28;20234;-78
2023/08/01 05:08:15;;;;;;;15.02;12.18;;;16.00;99.90;;;;;;4998673;28;20200;-78
2023/08/01 05:10:43;;;;;;;18.60;12.93;;;16.10;99.90;;;;;;4980275;28;20253;-78
2023/08/01 05:13:10;;;;;;;19.67;12.98;;;16.10;99.90;;;;;;4975558;28;20218;-79
2023/08/01 05:15:37;;;;;;;17.63;13.30;;;16.00;99.90;;;;;;4985716;28;20238;-79
2023/08/01 05:18:05;;;;;;;18.77;13.70;;;16.10;99.90;;;;;;4978428;28;20200;-79
2023/08/01 05:20:33;;;;;;;18.13;14.32;;;16.00;99.90;;;;;;4978727;28;20205;-79
2023/08/01 05:23:03;;;;;;;19.90;13.93;;;16.10;99.90;;;;;;4979209;28;20226;-79
2023/08/01 05:25:30;;;;;;;22.55;13.90;;;16.00;99.90;;;;;;4971693;28;20216;-79
2023/08/01 05:27:58;;;;;;;21.65;14.23;;;16.00;99.90;;;;;;4974115;28;20215;-79
2023/08/01 05:30:25;;;;;;;21.02;14.50;;;16.00;99.90;;;;;;4973830;28;20227;-79
2023/08/01 05:32:53;;;;;;;21.90;14.48;;;16.00;99.90;;;;;;4972172;28;20208;-81
2023/08/01 05:35:21;;;;;;;22.40;15.13;;;16.00;99.90;;;;;;4979461;28;20315;-79
2023/08/01 05:37:49;;;;;;;20.27;14.40;;;16.00;99.90;;;;;;4991255;28;20211;-79
2023/08/01 05:40:18;;;;;;;23.00;15.90;;;16.00;99.90;;;;;;4970439;28;20195;-79
2023/08/01 05:42:45;;;;;;;22.27;14.95;;;16.00;99.90;;;;;;4994428;28;20207;-79
2023/08/01 05:45:13;;;;;;;18.20;15.40;;;16.00;99.90;;;;;;4964381;28;20229;-79
2023/08/01 05:47:41;;;;;;;20.52;15.65;;;16.00;99.90;;;;;;4960692;28;20212;-79
2023/08/01 05:50:09;;;;;;;23.85;15.30;;;16.00;99.90;;;;;;4974464;28;20201;-79
2023/08/01 05:52:37;;;;;;;22.27;17.42;;;16.00;99.90;;;;;;4998849;28;20192;-79
2023/08/01 05:55:05;;;;;;;23.40;16.40;;;16.00;99.90;;;;;;4990915;28;20260;-79
2023/08/01 05:57:34;;;;;;;29.40;16.73;;;16.00;99.90;;;;;;4975608;28;20207;-79
2023/08/01 06:00:01;;;;;;;21.33;16.50;;;16.10;99.90;;;;;;4990373;28;20196;-79
2023/08/01 06:02:29;;;;;;;26.55;18.38;;;16.00;99.90;;;;;;4975363;28;20204;-79
2023/08/01 06:04:56;;;;;;;24.83;17.23;;;16.00;99.90;;;;;;4988939;28;20236;-79
2023/08/01 06:07:24;;;;;;;26.25;18.27;;;16.00;99.90;;;;;;4978076;28;20218;-79
2023/08/01 06:09:52;;;;;;;25.17;17.90;;;16.00;99.90;;;;;;5008081;28;20700;-79
2023/08/01 06:12:20;;;;;;;26.58;18.45;;;16.00;99.90;;;;;;4991627;28;20201;-79
2023/08/01 06:14:49;;;;;;;26.42;19.08;;;16.00;99.90;;;;;;4976220;28;20263;-79
2023/08/01 06:17:16;;;;;;;28.25;18.40;;;16.10;99.90;;;;;;4975133;28;20204;-80
2023/08/01 06:19:44;;;;;;;25.60;19.00;;;16.10;99.90;;;;;;4970826;28;20208;-79
2023/08/01 06:22:11;;;;;;;23.60;18.80;;;16.00;99.90;;;;;;4982471;28;20206;-79
2023/08/01 06:24:38;;;;;;;23.52;18.63;;;16.10;99.90;;;;;;4988893;28;20220;-79
2023/08/01 06:27:07;;;;;;;27.75;19.08;;;16.00;99.90;;;;;;4978066;28;20196;-79
2023/08/01 06:29:34;;;;;;;30.63;19.80;;;16.10;99.90;;;;;;4977764;28;20204;-79
2023/08/01 06:32:03;;;;;;;24.85;18.60;;;16.00;99.90;;;;;;4979285;28;20221;-80
2023/08/01 06:34:30;;;;;;;25.77;17.98;;;16.10;99.90;;;;;;4986406;28;20211;-79
2023/08/01 06:36:58;;;;;;;28.45;19.05;;;16.00;99.90;;;;;;4983954;28;20208;-79
2023/08/01 06:39:25;;;;;;;24.15;18.08;;;16.20;99.90;;;;;;4978586;28;20200;-80
2023/08/01 06:41:53;;;;;;;22.67;17.23;;;16.10;99.90;;;;;;4977819;28;20671;-79
2023/08/01 06:44:20;;;;;;;22.75;17.17;;;16.20;99.90;;;;;;5006948;28;20220;-79
2023/08/01 06:46:47;;;;;;;22.35;17.23;;;16.20;99.90;;;;;;4980100;28;20581;-79
2023/08/01 06:49:16;;;;;;;22.70;17.08;;;16.20;99.90;;;;;;4998015;28;20204;-80
2023/08/01 06:51:44;;;;;;;22.58;16.25;;;16.30;99.90;;;;;;4997365;28;20594;-79
2023/08/01 06:54:11;;;;;;;21.52;15.95;;;16.20;99.90;;;;;;4986168;28;20227;-79
2023/08/01 06:56:38;;;;;;;21.55;16.33;;;16.30;99.90;;;;;;5003476;28;20192;-79
2023/08/01 06:59:06;;;;;;;21.40;15.30;;;16.30;99.90;;;;;;4991103;28;20212;-79
2023/08/01 07:01:34;;;;;;;23.73;16.20;;;16.20;99.90;;;;;;4958440;28;20201;-79
2023/08/01 07:04:02;;;;;;;19.10;15.32;;;16.30;99.90;;;;;;4959106;28;20217;-79
2023/08/01 07:06:31;;;;;;;20.75;16.02;;;16.30;99.90;;;;;;4970229;28;20211;-79
2023/08/01 07:08:58;;;;;;;21.85;15.75;;;16.40;99.90;;;;;;5000950;28;20215;-79
2023/08/01 07:11:26;;;;;;;21.30;16.20;;;16.40;99.90;;;;;;4986578;28;20212;-79
2023/08/01 07:13:53;;;;;;;21.88;16.08;;;16.40;99.90;;;;;;5003765;28;20220;-79
2023/08/01 07:16:20;;;;;;;23.60;17.40;;;16.40;99.90;;;;;;4971046;28;20207;-79
2023/08/01 07:18:50;;;;;;;25.52;15.82;;;16.40;99.90;;;;;;5002728;28;20208;-79
2023/08/01 07:21:18;;;;;;;25.52;17.00;;;16.30;99.90;;;;;;4984747;28;20204;-79
2023/08/01 07:23:48;;;;;;;19.10;14.52;;;16.30;99.90;;;;;;4977529;28;20558;-79
2023/08/01 07:26:15;;;;;;;21.17;16.38;;;16.30;99.90;;;;;;4984212;28;20207;-79
2023/08/01 07:28:43;;;;;;;22.10;15.98;;;16.30;99.90;;;;;;5013318;28;20211;-79
2023/08/01 07:31:11;;;;;;;19.10;16.58;;;16.30;99.90;;;;;;5013242;28;20219;-79
2023/08/01 07:33:38;;;;;;;21.77;15.40;;;16.30;99.90;;;;;;4985788;28;20205;-79
2023/08/01 07:36:06;;;;;;;23.42;15.52;;;16.30;99.90;;;;;;4989965;28;20209;-79
2023/08/01 07:38:33;;;;;;;20.83;14.65;;;16.30;99.90;;;;;;4987594;28;20212;-79
2023/08/01 07:41:05;;;;;;;19.13;13.90;;;16.40;99.90;;;;;;4977547;28;20196;-79
2023/08/01 07:43:32;;;;;;;24.10;14.32;;;16.40;99.90;;;;;;4977134;28;20200;-80
2023/08/01 07:46:01;;;;;;;18.30;13.27;;;16.40;99.90;;;;;;4985714;28;20197;-79
2023/08/01 07:48:28;;;;;;;20.25;13.38;;;16.60;99.90;;;;;;4977699;28;20207;-79
2023/08/01 07:50:56;;;;;;;17.38;13.23;;;16.70;99.90;;;;;;4973427;28;20240;-79
2023/08/01 07:53:23;;;;;;;16.05;11.82;;;16.70;99.90;;;;;;4958344;28;20208;-79
2023/08/01 07:55:52;;;;;;;17.23;11.30;;;16.70;99.90;;;;;;4974402;28;20625;-79
2023/08/01 07:58:21;;;;;;;18.73;12.38;;;16.70;99.90;;;;;;4974633;28;20212;-80
2023/08/01 08:00:49;;;;;;;16.63;11.70;;;16.80;99.90;;;;;;4972916;28;20207;-79
2023/08/01 08:03:17;;;;;;;13.20;11.32;;;16.80;99.90;;;;;;4978106;28;20238;-79
2023/08/01 08:05:45;;;;;;;15.07;9.95;;;16.90;99.90;;;;;;4981555;28;20239;-79
2023/08/01 08:08:12;;;;;;;14.00;10.35;;;16.90;99.90;;;;;;4979156;28;20202;-79
2023/08/01 08:10:39;;;;;;;10.80;9.70;;;17.00;99.90;;;;;;4985465;28;20679;-79
2023/08/01 08:13:07;;;;;;;11.40;8.70;;;17.00;99.90;;;;;;4992948;28;20235;-79
2023/08/01 08:15:43;;;;;;;14.55;9.25;;;17.00;99.90;;;;;;4987960;28;20220;-79
2023/08/01 08:18:10;;;;;;;11.23;8.20;;;17.00;99.90;;;;;;4997139;28;20565;-79
2023/08/01 08:20:43;;;;;;;13.73;9.50;;;17.00;99.90;;;;;;4999512;28;20215;-79
2023/08/01 08:23:10;;;;;;;12.85;9.88;;;17.00;99.90;;;;;;4979579;28;20222;-79
2023/08/01 08:25:38;;;;;;;13.32;10.07;;;17.00;99.90;;;;;;4981692;28;20232;-79
2023/08/01 08:28:09;;;;;;;13.35;9.57;;;17.00;99.90;;;;;;4995473;28;20455;-79
2023/08/01 08:30:36;;;;;;;15.10;10.05;;;16.90;99.90;;;;;;4983525;28;20211;-78
2023/08/01 08:33:06;;;;;;;14.95;9.15;;;16.90;99.90;;;;;;4986804;28;20290;-79
2023/08/01 08:35:34;;;;;;;13.98;8.98;;;17.00;99.90;;;;;;4984182;28;20224;-79
2023/08/01 08:38:03;;;;;;;13.35;9.02;;;17.00;99.90;;;;;;4972620;28;20216;-79
2023/08/01 08:40:32;;;;;;;13.10;8.68;;;17.00;99.90;;;;;;4983026;28;20200;-80
2023/08/01 08:43:03;;;;;;;13.18;9.13;;;17.20;99.90;;;;;;4977626;28;20196;-80
2023/08/01 08:45:34;;;;;;;14.20;9.70;;;17.10;99.90;;;;;;4975306;28;20227;-79
2023/08/01 08:48:04;;;;;;;16.73;10.63;;;17.00;99.90;;;;;;4987801;28;20215;-79
2023/08/01 08:50:36;;;;;;;13.77;9.50;;;16.90;99.90;;;;;;4975574;28;20220;-79
2023/08/01 08:53:03;;;;;;;13.55;9.13;;;17.00;99.90;;;;;;4972931;28;20220;-79
2023/08/01 08:55:33;;;;;;;12.15;8.52;;;17.00;99.90;;;;;;4973696;28;20224;-79
2023/08/01 08:58:00;;;;;;;15.32;9.93;;;17.10;99.90;;;;;;4976050;28;20211;-79
2023/08/01 09:00:28;;;;;;;16.10;9.25;;;17.30;99.90;;;;;;4995707;28;20283;-79
2023/08/01 09:02:56;;;;;;;11.32;9.25;;;17.50;99.90;;;;;;4981265;28;21278;-79
2023/08/01 09:05:29;;;;;;;14.27;9.23;;;17.30;99.90;;;;;;4978460;28;20224;-79
2023/08/01 09:07:58;;;;;;;11.25;9.82;;;17.20;99.90;;;;;;4993472;28;20208;-79
2023/08/01 09:10:25;;;;;;;13.23;9.10;;;17.10;99.90;;;;;;4991222;28;20692;-79
2023/08/01 09:12:53;;;;;;;13.35;9.70;;;17.00;99.90;;;;;;4988420;28;20576;-80
2023/08/01 09:15:21;;;;;;;12.60;9.52;;;16.90;99.90;;;;;;5005201;28;20212;-79
2023/08/01 09:17:50;;;;;;;13.13;10.07;;;17.00;99.90;;;;;;4983776;28;20203;-79
2023/08/01 09:20:17;;;;;;;13.88;9.77;;;17.00;99.90;;;;;;4972421;28;20207;-79
2023/08/01 09:22:45;;;;;;;12.43;10.13;;;17.10;99.90;;;;;;4984839;28;20208;-79
2023/08/01 09:25:14;;;;;;;13.23;10.13;;;17.40;99.90;;;;;;4983295;28;20231;-79
2023/08/01 09:27:42;;;;;;;13.25;9.07;;;17.50;99.90;;;;;;5006546;28;20207;-79
2023/08/01 09:30:13;;;;;;;10.27;8.45;;;17.60;99.90;;;;;;4973121;28;20201;-79
2023/08/01 09:32:40;;;;;;;12.90;8.88;;;17.70;99.90;;;;;;4985005;28;20216;-79
2023/08/01 09:35:08;;;;;;;8.85;7.95;;;17.90;99.90;;;;;;4985218;28;20231;-79
2023/08/01 09:37:43;;;;;;;9.63;7.47;;;18.00;99.90;;;;;;4983790;28;20208;-79
2023/08/01 09:40:12;;;;;;;8.43;6.55;;;17.70;99.90;;;;;;5004603;28;20534;-79
2023/08/01 09:42:40;;;;;;;12.07;8.18;;;17.70;99.90;;;;;;4972914;28;20184;-79
2023/08/01 09:45:14;;;;;;;11.43;7.18;;;17.70;99.90;;;;;;4975335;28;20224;-79
2023/08/01 09:47:42;;;;;;;10.13;6.40;;;17.70;99.90;;;;;;4975237;28;20200;-79
2023/08/01 09:50:13;;;;;;;9.85;6.18;;;17.70;99.90;;;;;;4975169;28;20200;-79
2023/08/01 09:52:40;;;;;;;7.15;5.75;;;17.80;99.90;;;;;;4991612;28;20224;-79
2023/08/01 09:55:08;;;;;;;7.88;6.05;;;17.80;99.90;;;;;;4988348;28;20227;-79
2023/08/01 09:57:41;;;;;;;7.45;5.22;;;17.90;99.90;;;;;;5011418;28;20191;-79
2023/08/01 10:00:10;;;;;;;8.02;6.03;;;18.10;99.90;;;;;;4994270;28;20203;-79
2023/08/01 10:02:43;;;;;;;8.65;6.10;;;18.20;99.90;;;;;;5019633;28;20199;-80
2023/08/01 10:05:12;;;;;;;8.68;5.32;;;18.20;99.90;;;;;;4973729;28;20217;-78
2023/08/01 10:07:41;;;;;;;6.05;5.43;;;18.30;99.90;;;;;;4987351;28;20200;-79
2023/08/01 10:10:10;;;;;;;7.18;5.15;;;18.30;99.90;;;;;;4994129;28;20211;-79
2023/08/01 10:12:40;;;;;;;6.53;5.03;;;18.40;99.90;;;;;;4982958;28;20209;-79
2023/08/01 10:15:09;;;;;;;7.63;5.28;;;18.40;99.90;;;;;;4966158;28;20588;-79
2023/08/01 10:17:37;;;;;;;6.18;4.95;;;18.40;99.90;;;;;;4991675;28;20662;-79
2023/08/01 10:20:06;;;;;;;5.18;4.65;;;18.40;99.90;;;;;;4991313;28;20204;-79
2023/08/01 10:22:33;;;;;;;8.85;4.63;;;18.30;99.90;;;;;;4991326;28;20188;-79
2023/08/01 10:25:13;;;;;;;5.95;4.75;;;18.20;99.90;;;;;;4989425;28;20232;-80
2023/08/01 10:27:42;;;;;;;6.93;5.03;;;18.20;99.90;;;;;;4980668;28;20211;-79
2023/08/01 10:30:10;;;;;;;6.60;4.97;;;18.10;99.90;;;;;;4984684;28;20208;-79
2023/08/01 10:33:12;;;;;;;10.13;5.47;;;18.20;99.90;;;;;;4974802;28;20221;-79
2023/08/01 10:35:41;;;;;;;8.18;5.13;;;18.10;99.90;;;;;;4990840;28;20228;-79
2023/08/01 10:38:09;;;;;;;6.80;5.43;;;18.00;99.90;;;;;;4978134;28;20550;-79
2023/08/01 10:40:38;;;;;;;7.22;5.95;;;18.00;99.90;;;;;;4975767;28;20204;-79
2023/08/01 10:43:21;;;;;;;7.25;5.85;;;18.00;99.90;;;;;;4986938;28;20207;-79
2023/08/01 10:45:49;;;;;;;6.20;5.50;;;18.10;99.90;;;;;;4991451;28;20239;-79
2023/08/01 10:48:16;;;;;;;7.10;5.63;;;18.10;99.90;;;;;;4977361;28;20200;-79
2023/08/01 10:50:54;;;;;;;6.65;5.63;;;18.10;99.90;;;;;;4990792;28;20200;-80
2023/08/01 10:53:21;;;;;;;7.20;4.88;;;18.20;99.90;;;;;;4992957;28;20222;-79
2023/08/01 10:55:49;;;;;;;6.70;6.00;;;18.20;99.90;;;;;;4992998;28;20228;-79
2023/08/01 10:58:17;;;;;;;6.50;5.00;;;18.30;99.90;;;;;;4981539;28;20212;-79
2023/08/01 11:00:46;;;;;;;5.35;4.65;;;18.30;99.90;;;;;;4988491;28;20207;-79
2023/08/01 11:03:15;;;;;;;6.30;5.60;;;18.30;99.90;;;;;;4996550;28;20684;-79
2023/08/01 11:05:42;;;;;;;7.45;5.18;;;18.30;99.90;;;;;;4972250;28;20228;-79
2023/08/01 11:08:09;;;;;;;5.47;4.80;;;17.90;99.90;;;;;;4988916;28;20219;-79
2023/08/01 11:10:38;;;;;;;5.40;4.68;;;17.60;99.90;;;;;;4978231;28;20227;-79
2023/08/01 11:13:06;;;;;;;7.40;5.78;;;17.40;99.90;;;;;;4994743;28;20216;-79
2023/08/01 11:15:33;;;;;;;8.55;5.32;;;17.30;99.90;;;;;;4989208;28;20224;-79
2023/08/01 11:18:17;;;;;;;7.13;5.30;;;17.20;99.90;;;;;;4977722;28;20205;-79
2023/08/01 11:20:45;;;;;;;7.00;5.10;;;17.10;99.90;;;;;;4977698;28;20675;-79
2023/08/01 11:23:12;;;;;;;8.27;5.85;;;17.20;99.90;;;;;;4969794;28;20201;-79
2023/08/01 11:25:42;;;;;;;6.72;6.10;;;17.40;99.90;;;;;;4984044;28;20223;-79
2023/08/01 11:28:11;;;;;;;8.05;6.63;;;17.60;99.90;;;;;;4980594;28;20208;-80
2023/08/01 11:30:40;;;;;;;7.95;5.50;;;17.60;99.90;;;;;;5000143;28;20196;-79
2023/08/01 11:33:21;;;;;;;7.03;5.22;;;17.80;99.90;;;;;;5002162;28;20222;-81
2023/08/01 11:35:53;;;;;;;4.78;4.18;;;17.90;99.90;;;;;;4982687;28;20232;-79
2023/08/01 11:38:23;;;;;;;4.05;3.55;;;17.80;99.90;;;;;;4980849;28;20203;-79
2023/08/01 11:40:51;;;;;;;5.75;3.65;;;17.80;99.90;;;;;;4990674;28;20197;-79
2023/08/01 11:43:19;;;;;;;4.75;3.28;;;17.80;99.90;;;;;;5001269;28;20206;-80
2023/08/01 11:45:50;;;;;;;5.18;3.78;;;17.90;99.90;;;;;;4979702;28;20231;-79
2023/08/01 11:48:19;;;;;;;5.60;3.58;;;17.90;99.90;;;;;;4981110;28;20214;-79
2023/08/01 11:50:47;;;;;;;4.70;3.30;;;18.00;99.90;;;;;;4978683;28;20216;-79
2023/08/01 11:53:21;;;;;;;5.45;2.90;;;18.10;99.90;;;;;;4981654;28;20219;-79
2023/08/01 11:55:52;;;;;;;4.88;2.72;;;18.10;99.90;;;;;;4977737;28;20239;-80
2023/08/01 11:58:29;;;;;;;6.78;3.00;;;18.20;99.90;;;;;;4978492;28;20218;-80
2023/08/01 12:01:04;;;;;;;5.93;3.00;;;18.30;99.90;;;;;;4988377;28;20216;-79
2023/08/01 12:03:42;;;;;;;5.20;2.85;;;18.40;99.90;;;;;;4994443;28;20211;-80
2023/08/01 12:06:11;;;;;;;3.75;2.65;;;18.30;99.90;;;;;;4987923;28;20211;-79
2023/08/01 12:08:39;;;;;;;5.82;2.92;;;18.30;99.90;;;;;;4992062;28;20205;-79
2023/08/01 12:11:06;;;;;;;5.47;2.53;;;18.30;99.90;;;;;;4976376;28;20599;-79
2023/08/01 12:13:33;;;;;;;5.93;2.58;;;18.40;99.90;;;;;;4997571;28;20215;-79
2023/08/01 12:16:01;;;;;;;4.47;2.40;;;18.80;99.90;;;;;;4983255;28;20215;-79
2023/08/01 12:18:29;;;;;;;4.82;2.22;;;19.10;99.90;;;;;;4983626;28;20208;-79
2023/08/01 12:20:58;;;;;;;7.03;2.80;;;19.20;99.90;;;;;;4995622;28;20219;-79
2023/08/01 12:23:25;;;;;;;3.85;2.28;;;19.40;99.90;;;;;;4976494;28;20200;-79
2023/08/01 12:25:53;;;;;;;3.47;1.92;;;19.50;99.90;;;;;;4987603;28;20698;-78
2023/08/01 12:28:25;;;;;;;4.30;2.33;;;19.60;99.90;;;;;;4976944;28;20575;-79
2023/08/01 12:30:53;;;;;;;5.60;2.20;;;19.40;99.90;;;;;;4985778;28;20205;-78
2023/08/01 12:33:21;;;;;;;3.95;2.03;;;19.20;99.90;;;;;;4979227;28;20219;-78
2023/08/01 12:35:48;;;;;;;3.85;1.98;;;19.10;99.90;;;;;;4981140;28;20254;-78
2023/08/01 12:38:17;;;;;;;4.22;2.03;;;19.00;99.90;;;;;;4994829;28;20204;-78
2023/08/01 12:40:44;;;;;;;3.83;2.13;;;19.00;99.90;;;;;;4984379;28;20280;-78
2023/08/01 12:43:19;;;;;;;4.32;2.25;;;18.90;99.90;;;;;;4997865;28;20207;-78
2023/08/01 12:45:48;;;;;;;4.60;2.58;;;18.90;99.90;;;;;;4989365;28;20227;-78